createdAt,value
2018-08-30T10:39:29.139Z,3065.62
2018-08-30T10:40:29.064Z,3088.12
2018-08-30T10:41:29.059Z,3071.25
2018-08-30T10:42:29.109Z,2986.88
2018-08-30T10:43:29.042Z,894.38
2018-08-30T10:44:30.758Z,725.62
2018-08-30T10:45:29.016Z,669.38
2018-08-30T10:46:29.008Z,765.00
2018-08-30T10:47:29.061Z,2649.38
2018-08-30T10:48:28.992Z,2745.00
2018-08-30T10:49:29.044Z,3003.75
2018-08-30T10:50:28.970Z,1406.25
2018-08-30T10:51:28.959Z,3093.75
2018-08-30T10:52:29.016Z,3043.12
2018-08-30T10:53:28.942Z,3009.38
2018-08-30T10:54:28.934Z,2953.12
2018-08-30T10:55:28.920Z,3071.25
2018-08-30T10:56:28.957Z,3178.12
2018-08-30T10:57:28.980Z,3082.50
2018-08-30T10:58:28.895Z,3082.50
2018-08-30T10:59:28.887Z,3037.50
2018-08-30T11:00:29.708Z,3166.88
2018-08-30T11:01:28.877Z,3206.25
2018-08-30T11:02:28.859Z,3211.88
2018-08-30T11:03:28.912Z,2981.25
2018-08-30T11:04:28.907Z,3223.12
2018-08-30T11:05:28.835Z,3026.25
2018-08-30T11:06:36.993Z,3144.38
2018-08-30T11:07:37.483Z,3234.38
2018-08-30T11:08:37.429Z,3431.25
2018-08-30T11:09:28.794Z,3386.25
2018-08-30T11:10:36.909Z,1119.38
2018-08-30T11:11:28.780Z,1012.50
2018-08-30T11:12:28.767Z,3150.00
2018-08-30T11:13:28.892Z,3150.00
2018-08-30T11:14:28.747Z,3256.88
2018-08-30T11:15:28.739Z,3245.62
2018-08-30T11:16:28.736Z,3166.88
2018-08-30T11:17:28.724Z,3195.00
2018-08-30T11:18:28.780Z,3223.12
2018-08-30T11:19:28.785Z,3223.12
2018-08-30T11:20:28.707Z,956.25
2018-08-30T11:21:28.697Z,3054.38
2018-08-30T11:22:28.677Z,3178.12
2018-08-30T11:23:28.732Z,3211.88
2018-08-30T11:24:28.685Z,1867.50
2018-08-30T11:25:28.676Z,3296.25
2018-08-30T11:26:28.649Z,3273.75
2018-08-30T11:27:29.348Z,3217.50
2018-08-30T11:28:28.686Z,3099.38
2018-08-30T11:29:28.616Z,3037.50
2018-08-30T11:30:28.610Z,3127.50
2018-08-30T11:31:28.599Z,3155.62
2018-08-30T11:32:28.598Z,3206.25
2018-08-30T11:33:28.646Z,2407.50
2018-08-30T11:34:28.571Z,3228.75
2018-08-30T11:35:28.565Z,3234.38
2018-08-30T11:36:28.561Z,3318.75
2018-08-30T11:37:28.556Z,3245.62
2018-08-30T11:38:28.613Z,3200.62
2018-08-30T11:39:28.532Z,3161.25
2018-08-30T11:40:28.521Z,3093.75
2018-08-30T11:41:28.622Z,3076.88
2018-08-30T11:42:28.504Z,2964.38
2018-08-30T11:43:28.592Z,3155.62
2018-08-30T11:44:28.491Z,3133.12
2018-08-30T11:45:28.479Z,3121.88
2018-08-30T11:46:28.473Z,3138.75
2018-08-30T11:47:28.608Z,3144.38
2018-08-30T11:48:28.921Z,1912.50
2018-08-30T11:49:28.448Z,1490.62
2018-08-30T11:50:28.435Z,2503.12
2018-08-30T11:51:28.431Z,3189.38
2018-08-30T11:52:28.424Z,3155.62
2018-08-30T11:53:28.475Z,3133.12
2018-08-30T11:54:28.401Z,3060.00
2018-08-30T11:55:28.392Z,3031.88
2018-08-30T11:56:28.395Z,3195.00
2018-08-30T11:57:28.381Z,3273.75
2018-08-30T11:58:28.434Z,3268.12
2018-08-30T11:59:28.361Z,3155.62
2018-08-30T12:00:28.348Z,3166.88
2018-08-30T12:01:28.342Z,3262.50
2018-08-30T12:02:28.337Z,3296.25
2018-08-30T12:03:28.384Z,3138.75
2018-08-30T12:04:28.317Z,2722.50
2018-08-30T12:05:28.310Z,3318.75
2018-08-30T12:06:28.297Z,3363.75
2018-08-30T12:07:28.291Z,3363.75
2018-08-30T12:08:28.397Z,2784.38
2018-08-30T12:09:28.847Z,3189.38
2018-08-30T12:10:28.315Z,2863.12
2018-08-30T12:11:28.275Z,1130.62
2018-08-30T12:12:28.277Z,1586.25
2018-08-30T12:13:28.308Z,3375.00
2018-08-30T12:14:28.230Z,3189.38
2018-08-30T12:15:28.222Z,3144.38
2018-08-30T12:16:28.232Z,2244.38
2018-08-30T12:17:28.245Z,1018.12
2018-08-30T12:18:28.263Z,978.75
2018-08-30T12:19:28.196Z,866.25
2018-08-30T12:20:28.204Z,871.88
2018-08-30T12:21:28.169Z,1338.75
2018-08-30T12:22:28.158Z,2188.12
2018-08-30T12:23:28.245Z,3071.25
2018-08-30T12:24:28.141Z,1501.88
2018-08-30T12:25:28.130Z,753.75
2018-08-30T12:26:28.119Z,708.75
2018-08-30T12:27:28.113Z,2300.62
2018-08-30T12:28:28.233Z,3015.00
2018-08-30T12:29:28.091Z,793.12
2018-08-30T12:30:28.878Z,1749.38
2018-08-30T12:31:28.111Z,3015.00
2018-08-30T12:32:28.104Z,3020.62
2018-08-30T12:33:28.178Z,3026.25
2018-08-30T12:34:28.154Z,3155.62
2018-08-30T12:35:28.054Z,2986.88
2018-08-30T12:36:28.091Z,2902.50
2018-08-30T12:37:28.047Z,2154.38
2018-08-30T12:38:28.102Z,2874.38
2018-08-30T12:39:28.076Z,2908.12
2018-08-30T12:40:28.111Z,3015.00
2018-08-30T12:41:28.030Z,2975.62
2018-08-30T12:42:28.066Z,3020.62
2018-08-30T12:43:28.208Z,3054.38
2018-08-30T12:44:28.025Z,2941.88
2018-08-30T12:45:27.961Z,3009.38
2018-08-30T12:46:28.042Z,1119.38
2018-08-30T12:47:27.994Z,911.25
2018-08-30T12:48:27.948Z,961.88
2018-08-30T12:49:27.978Z,3003.75
2018-08-30T12:50:27.998Z,2143.12
2018-08-30T12:51:29.085Z,883.12
2018-08-30T12:52:27.964Z,888.75
2018-08-30T12:53:27.922Z,995.62
2018-08-30T12:54:28.033Z,821.25
2018-08-30T12:55:27.872Z,1676.25
2018-08-30T12:56:27.976Z,2705.62
2018-08-30T12:57:27.950Z,922.50
2018-08-30T12:58:28.088Z,815.62
2018-08-30T12:59:27.999Z,714.38
2018-08-30T13:00:27.979Z,742.50
2018-08-30T13:01:27.936Z,815.62
2018-08-30T13:02:27.942Z,843.75
2018-08-30T13:03:27.930Z,1305.00
2018-08-30T13:04:28.151Z,2812.50
2018-08-30T13:05:28.103Z,2660.62
2018-08-30T13:06:27.946Z,2649.38
2018-08-30T13:07:28.020Z,2767.50
2018-08-30T13:08:28.000Z,2773.12
2018-08-30T13:09:28.067Z,2773.12
2018-08-30T13:10:27.909Z,2784.38
2018-08-30T13:11:28.393Z,2823.75
2018-08-30T13:12:28.656Z,2812.50
2018-08-30T13:13:27.999Z,1001.25
2018-08-30T13:14:28.000Z,2885.62
2018-08-30T13:15:27.976Z,950.62
2018-08-30T13:16:27.658Z,860.62
2018-08-30T13:17:27.826Z,1884.38
2018-08-30T13:18:27.825Z,2368.12
2018-08-30T13:19:28.094Z,2604.38
2018-08-30T13:20:27.832Z,2598.75
2018-08-30T13:21:27.657Z,843.75
2018-08-30T13:22:27.874Z,1591.88
2018-08-30T13:23:27.912Z,2491.88
2018-08-30T13:24:28.061Z,2452.50
2018-08-30T13:25:27.954Z,2475.00
2018-08-30T13:26:27.796Z,2497.50
2018-08-30T13:27:27.805Z,916.88
2018-08-30T13:28:27.909Z,1209.38
2018-08-30T13:29:27.899Z,2463.75
2018-08-30T13:30:28.039Z,2272.50
2018-08-30T13:31:27.933Z,2441.25
2018-08-30T13:32:28.119Z,1389.38
2018-08-30T13:33:28.701Z,2328.75
2018-08-30T13:34:27.911Z,2525.62
2018-08-30T13:35:27.785Z,2475.00
2018-08-30T13:36:27.898Z,2475.00
2018-08-30T13:37:27.671Z,2317.50
2018-08-30T13:38:27.900Z,1918.12
2018-08-30T13:39:27.931Z,855.00
2018-08-30T13:40:27.713Z,1321.88
2018-08-30T13:41:28.112Z,2047.50
2018-08-30T13:42:27.741Z,2283.75
2018-08-30T13:43:27.653Z,2345.62
2018-08-30T13:44:27.890Z,978.75
2018-08-30T13:45:27.650Z,2255.62
2018-08-30T13:46:27.678Z,2255.62
2018-08-30T13:47:27.768Z,2193.75
2018-08-30T13:48:27.693Z,826.88
2018-08-30T13:49:27.716Z,2221.88
2018-08-30T13:50:27.645Z,742.50
2018-08-30T13:51:27.523Z,641.25
2018-08-30T13:52:27.788Z,630.00
2018-08-30T13:53:27.639Z,1490.62
2018-08-30T13:54:28.458Z,1653.75
2018-08-30T13:55:27.676Z,669.38
2018-08-30T13:56:27.738Z,635.62
2018-08-30T13:57:27.709Z,635.62
2018-08-30T13:58:27.802Z,810.00
2018-08-30T13:59:27.793Z,2115.00
2018-08-30T14:00:27.771Z,810.00
2018-08-30T14:01:27.822Z,1428.75
2018-08-30T14:02:27.681Z,1957.50
2018-08-30T14:03:27.505Z,2126.25
2018-08-30T14:04:27.791Z,2092.50
2018-08-30T14:05:27.506Z,1479.38
2018-08-30T14:06:27.428Z,2013.75
2018-08-30T14:07:27.408Z,2002.50
2018-08-30T14:08:27.369Z,2013.75
2018-08-30T14:09:27.491Z,2058.75
2018-08-30T14:10:27.413Z,2041.88
2018-08-30T14:11:27.515Z,2002.50
2018-08-30T14:12:27.388Z,1963.12
2018-08-30T14:13:27.564Z,1946.25
2018-08-30T14:14:27.551Z,1873.12
2018-08-30T14:15:28.233Z,1867.50
2018-08-30T14:16:27.083Z,1940.62
2018-08-30T14:17:27.068Z,1957.50
2018-08-30T14:18:27.058Z,1895.62
2018-08-30T14:19:27.115Z,1856.25
2018-08-30T14:20:27.092Z,1923.75
2018-08-30T14:21:27.021Z,1935.00
2018-08-30T14:22:27.018Z,1946.25
2018-08-30T14:23:27.069Z,1951.88
2018-08-30T14:24:27.002Z,1884.38
2018-08-30T14:25:27.073Z,1254.38
2018-08-30T14:26:26.976Z,950.62
2018-08-30T14:27:26.979Z,1873.12
2018-08-30T14:28:26.957Z,1833.75
2018-08-30T14:29:27.030Z,804.38
2018-08-30T14:30:27.070Z,1906.88
2018-08-30T14:31:26.942Z,1918.12
2018-08-30T14:32:26.926Z,1563.75
2018-08-30T14:33:26.966Z,787.50
2018-08-30T14:34:26.901Z,731.25
2018-08-30T14:35:26.962Z,703.12
2018-08-30T14:36:27.904Z,658.12
2018-08-30T14:37:26.879Z,742.50
2018-08-30T14:38:26.854Z,1670.62
2018-08-30T14:39:26.846Z,1417.50
2018-08-30T14:40:26.985Z,1625.62
2018-08-30T14:41:26.861Z,1423.12
2018-08-30T14:42:26.824Z,618.75
2018-08-30T14:43:26.813Z,1608.75
2018-08-30T14:44:26.816Z,1648.12
2018-08-30T14:45:26.862Z,1693.12
2018-08-30T14:46:34.318Z,1625.62
2018-08-30T14:47:26.866Z,1541.25
2018-08-30T14:48:26.765Z,1603.12
2018-08-30T14:49:26.756Z,1558.12
2018-08-30T14:50:26.804Z,1468.12
2018-08-30T14:51:26.726Z,1456.88
2018-08-30T14:52:34.711Z,1490.62
2018-08-30T14:53:26.747Z,500.62
2018-08-30T14:55:44.064Z,472.50
2018-08-30T14:56:43.992Z,450.00
2018-08-30T14:57:43.979Z,416.25
2018-08-30T14:58:43.971Z,410.62
2018-08-30T14:59:44.040Z,399.38
2018-08-30T15:00:44.033Z,376.88
2018-08-30T15:01:43.939Z,348.75
2018-08-30T15:02:43.937Z,343.12
2018-08-30T15:03:43.921Z,376.88
2018-08-30T15:04:43.912Z,466.88
2018-08-30T15:05:44.124Z,1400.62
2018-08-30T15:06:43.963Z,1423.12
2018-08-30T15:07:43.895Z,1440.00
2018-08-30T15:08:43.953Z,1423.12
2018-08-30T15:09:43.859Z,1400.62
2018-08-30T15:10:43.914Z,1361.25
2018-08-30T15:11:43.843Z,1282.50
2018-08-30T15:12:43.869Z,1276.88
2018-08-30T15:13:43.869Z,1310.62
2018-08-30T15:14:43.823Z,1299.38
2018-08-30T15:15:44.405Z,1288.12
2018-08-30T15:16:43.790Z,1265.62
2018-08-30T15:17:43.785Z,1271.25
2018-08-30T15:18:43.768Z,1254.38
2018-08-30T15:19:43.787Z,1243.12
2018-08-30T15:20:43.814Z,1198.12
2018-08-30T15:21:43.737Z,1203.75
2018-08-30T15:22:43.726Z,1198.12
2018-08-30T15:23:43.723Z,1186.88
2018-08-30T15:24:43.707Z,1181.25
2018-08-30T15:25:43.762Z,1175.62
2018-08-30T15:26:43.693Z,1170.00
2018-08-30T15:27:43.773Z,1125.00
2018-08-30T15:28:43.672Z,1102.50
2018-08-30T15:29:43.654Z,1096.88
2018-08-30T15:30:43.724Z,1096.88
2018-08-30T15:31:43.638Z,1091.25
2018-08-30T15:32:43.627Z,1063.12
2018-08-30T15:33:43.648Z,1040.62
2018-08-30T15:34:43.605Z,1023.75
2018-08-30T15:35:43.667Z,1018.12
2018-08-30T15:36:44.229Z,990.00
2018-08-30T15:37:43.579Z,990.00
2018-08-30T15:38:43.566Z,995.62
2018-08-30T15:39:43.557Z,939.38
2018-08-30T15:40:43.607Z,911.25
2018-08-30T15:41:43.544Z,905.62
2018-08-30T15:42:43.528Z,900.00
2018-08-30T15:43:43.516Z,810.00
2018-08-30T15:44:43.502Z,843.75
2018-08-30T15:45:43.557Z,804.38
2018-08-30T15:46:43.483Z,810.00
2018-08-30T15:47:43.477Z,821.25
2018-08-30T15:48:43.520Z,815.62
2018-08-30T15:49:43.468Z,810.00
2018-08-30T15:50:43.507Z,810.00
2018-08-30T15:51:43.433Z,804.38
2018-08-30T15:52:43.422Z,607.50
2018-08-30T15:53:43.414Z,708.75
2018-08-30T15:54:43.408Z,686.25
2018-08-30T15:55:43.458Z,680.62
2018-08-30T15:56:43.380Z,613.12
2018-08-30T15:57:44.236Z,483.75
2018-08-30T15:58:43.382Z,393.75
2018-08-30T15:59:43.349Z,371.25
2018-08-30T16:00:43.408Z,331.88
2018-08-30T16:01:43.325Z,331.88
2018-08-30T16:02:43.338Z,320.62
2018-08-30T16:03:43.305Z,309.38
2018-08-30T16:04:43.294Z,286.88
2018-08-30T16:05:43.360Z,281.25
2018-08-30T16:06:43.292Z,270.00
2018-08-30T16:07:43.266Z,258.75
2018-08-30T16:08:43.259Z,258.75
2018-08-30T16:09:43.244Z,258.75
2018-08-30T16:10:43.350Z,253.12
2018-08-30T16:11:43.225Z,264.38
2018-08-30T16:12:43.214Z,264.38
2018-08-30T16:13:43.202Z,253.12
2018-08-30T16:14:43.191Z,253.12
2018-08-30T16:15:43.270Z,253.12
2018-08-30T16:16:43.172Z,264.38
2018-08-30T16:17:43.168Z,270.00
2018-08-30T16:18:43.901Z,275.62
2018-08-30T16:19:43.139Z,270.00
2018-08-30T16:20:43.265Z,264.38
2018-08-30T16:21:43.124Z,258.75
2018-08-30T16:22:43.108Z,258.75
2018-08-30T16:23:43.102Z,258.75
2018-08-30T16:24:43.151Z,258.75
2018-08-30T16:25:43.145Z,258.75
2018-08-30T16:26:43.067Z,258.75
2018-08-30T16:27:43.056Z,258.75
2018-08-30T16:28:43.058Z,253.12
2018-08-30T16:29:43.039Z,241.88
2018-08-30T16:30:43.232Z,236.25
2018-08-30T16:31:43.014Z,236.25
2018-08-30T16:32:43.005Z,236.25
2018-08-30T16:33:42.992Z,230.62
2018-08-30T16:34:43.039Z,225.00
2018-08-30T16:35:42.975Z,219.38
2018-08-30T16:36:43.031Z,213.75
2018-08-30T16:37:42.951Z,213.75
2018-08-30T16:38:42.942Z,219.38
2018-08-30T16:39:43.739Z,219.38
2018-08-30T16:40:42.923Z,225.00
2018-08-30T16:41:42.973Z,219.38
2018-08-30T16:42:42.900Z,219.38
2018-08-30T16:43:42.889Z,213.75
2018-08-30T16:44:42.902Z,208.12
2018-08-30T16:45:42.871Z,202.50
2018-08-30T16:46:42.923Z,202.50
2018-08-30T16:47:42.849Z,196.88
2018-08-30T16:48:42.979Z,196.88
2018-08-30T16:49:42.827Z,191.25
2018-08-30T16:50:42.817Z,185.62
2018-08-30T16:51:42.869Z,180.00
2018-08-30T16:52:42.795Z,174.38
2018-08-30T16:53:42.878Z,174.38
2018-08-30T16:54:42.771Z,168.75
2018-08-30T16:55:42.784Z,163.12
2018-08-30T16:56:42.821Z,163.12
2018-08-30T16:57:42.743Z,163.12
2018-08-30T16:58:42.730Z,163.12
2018-08-30T16:59:42.737Z,157.50
2018-08-30T17:00:43.231Z,157.50
2018-08-30T17:01:42.765Z,151.88
2018-08-30T17:02:42.690Z,151.88
2018-08-30T17:03:42.677Z,151.88
2018-08-30T17:04:42.666Z,146.25
2018-08-30T17:05:42.670Z,146.25
2018-08-30T17:06:42.819Z,140.62
2018-08-30T17:07:42.638Z,140.62
2018-08-30T17:08:42.654Z,140.62
2018-08-30T17:09:42.616Z,140.62
2018-08-30T17:10:42.610Z,135.00
2018-08-30T17:11:42.660Z,135.00
2018-08-30T17:12:42.596Z,140.62
2018-08-30T17:13:42.585Z,140.62
2018-08-30T17:14:42.566Z,140.62
2018-08-30T17:15:42.554Z,135.00
2018-08-30T17:16:42.704Z,140.62
2018-08-30T17:17:42.579Z,140.62
2018-08-30T17:18:42.524Z,140.62
2018-08-30T17:19:42.514Z,135.00
2018-08-30T17:20:42.500Z,135.00
2018-08-30T17:21:42.810Z,135.00
2018-08-30T17:22:42.480Z,129.38
2018-08-30T17:23:42.467Z,123.75
2018-08-30T17:24:42.458Z,123.75
2018-08-30T17:25:42.476Z,123.75
2018-08-30T17:26:42.497Z,118.12
2018-08-30T17:27:42.423Z,118.12
2018-08-30T17:28:42.412Z,112.50
2018-08-30T17:29:44.237Z,112.50
2018-08-30T17:30:42.391Z,112.50
2018-08-30T17:31:42.491Z,106.88
2018-08-30T17:32:42.373Z,106.88
2018-08-30T17:33:42.362Z,106.88
2018-08-30T17:34:42.354Z,101.25
2018-08-30T17:35:42.444Z,95.62
2018-08-30T17:36:42.395Z,95.62
2018-08-30T17:37:42.376Z,90.00
2018-08-30T17:38:42.326Z,84.38
2018-08-30T17:39:42.301Z,84.38
2018-08-30T17:40:42.291Z,78.75
2018-08-30T17:41:42.339Z,78.75
2018-08-30T17:42:43.235Z,78.75
2018-08-30T17:43:42.253Z,73.12
2018-08-30T17:44:42.246Z,73.12
2018-08-30T17:45:42.237Z,73.12
2018-08-30T17:46:42.358Z,67.50
2018-08-30T17:47:42.215Z,67.50
2018-08-30T17:48:42.218Z,61.88
2018-08-30T17:49:42.193Z,61.88
2018-08-30T17:50:42.183Z,56.25
2018-08-30T17:51:42.245Z,56.25
2018-08-30T17:52:42.161Z,50.62
2018-08-30T17:53:42.152Z,50.62
2018-08-30T17:54:42.140Z,45.00
2018-08-30T17:55:42.168Z,45.00
2018-08-30T17:56:42.185Z,45.00
2018-08-30T17:57:42.110Z,39.38
2018-08-30T17:58:42.097Z,39.38
2018-08-30T17:59:42.091Z,33.75
2018-08-30T18:00:42.079Z,33.75
2018-08-30T18:01:42.129Z,33.75
2018-08-30T18:02:42.079Z,28.12
2018-08-30T18:03:42.786Z,28.12
2018-08-30T18:04:42.037Z,28.12
2018-08-30T18:05:42.024Z,28.12
2018-08-30T18:06:42.077Z,22.50
2018-08-30T18:07:42.058Z,22.50
2018-08-30T18:08:41.991Z,22.50
2018-08-30T18:09:41.983Z,16.88
2018-08-30T18:10:41.969Z,16.88
2018-08-30T18:11:42.025Z,16.88
2018-08-30T18:12:41.950Z,16.88
2018-08-30T18:13:41.942Z,11.25
2018-08-30T18:14:41.928Z,11.25
2018-08-30T18:15:41.916Z,11.25
2018-08-30T18:16:41.909Z,11.25
2018-08-30T18:17:41.974Z,11.25
2018-08-30T18:18:41.898Z,5.62
2018-08-30T18:19:41.873Z,5.62
2018-08-30T18:20:41.867Z,5.62
2018-08-30T18:21:41.855Z,5.62
2018-08-30T18:22:41.908Z,5.62
2018-08-30T18:23:41.844Z,5.62
2018-08-30T18:24:42.734Z,5.62
2018-08-30T18:25:41.811Z,5.62
2018-08-30T18:26:41.800Z,0.00
2018-08-30T18:27:41.852Z,0.00
2018-08-30T18:28:50.770Z,0.00
2018-08-30T18:29:41.778Z,0.00
2018-08-30T18:30:49.288Z,0.00
2018-08-30T18:31:41.755Z,0.00
2018-08-30T18:32:41.801Z,0.00
2018-08-30T18:33:41.728Z,0.00
2018-08-30T18:34:41.717Z,0.00
2018-08-30T18:35:41.704Z,0.00
2018-08-30T18:36:41.700Z,0.00
2018-08-30T18:37:41.766Z,0.00
2018-08-30T18:38:41.676Z,0.00
2018-08-30T18:39:50.564Z,0.00
2018-08-30T18:40:41.653Z,0.00
2018-08-30T18:41:41.640Z,0.00
2018-08-30T18:42:41.695Z,0.00
2018-08-30T18:43:41.620Z,0.00
2018-08-30T18:44:41.614Z,0.00
2018-08-30T18:45:41.598Z,0.00
2018-08-30T18:46:41.588Z,0.00
2018-08-30T18:47:41.643Z,0.00
2018-08-30T18:48:41.568Z,0.00
2018-08-30T18:49:41.565Z,0.00
2018-08-30T18:50:41.549Z,0.00
2018-08-30T18:51:42.335Z,0.00
2018-08-30T18:52:41.591Z,0.00
2018-08-30T18:53:41.516Z,0.00
2018-08-30T18:54:41.510Z,0.00
2018-08-30T18:55:41.501Z,0.00
2018-08-30T18:56:41.498Z,0.00
2018-08-30T18:57:41.533Z,0.00
2018-08-30T18:58:41.464Z,0.00
2018-08-30T18:59:41.457Z,0.00
2018-08-30T19:00:41.444Z,0.00
2018-08-30T19:01:41.479Z,0.00
2018-08-30T19:02:41.485Z,0.00
2018-08-30T19:03:41.410Z,0.00
2018-08-30T19:04:41.408Z,0.00
2018-08-30T19:05:41.389Z,0.00
2018-08-30T19:06:41.380Z,0.00
2018-08-30T19:07:41.443Z,0.00
2018-08-30T19:08:41.355Z,0.00
2018-08-30T19:09:41.345Z,0.00
2018-08-30T19:10:41.336Z,0.00
2018-08-30T19:11:41.322Z,0.00
2018-08-30T19:12:41.902Z,0.00
2018-08-30T19:13:41.335Z,0.00
2018-08-30T19:14:41.289Z,0.00
2018-08-30T19:15:41.281Z,0.00
2018-08-30T19:16:41.269Z,0.00
2018-08-30T19:17:41.322Z,0.00
2018-08-30T19:18:41.259Z,0.00
2018-08-30T19:19:41.247Z,0.00
2018-08-30T19:20:41.294Z,0.00
2018-08-30T19:21:41.217Z,0.00
2018-08-30T19:22:41.270Z,0.00
2018-08-30T19:23:41.198Z,0.00
2018-08-30T19:24:41.188Z,0.00
2018-08-30T19:25:41.184Z,0.00
2018-08-30T19:26:41.165Z,0.00
2018-08-30T19:27:41.269Z,0.00
2018-08-30T19:28:41.148Z,0.00
2018-08-30T19:29:41.131Z,0.00
2018-08-30T19:30:41.833Z,0.00
2018-08-30T19:31:41.133Z,0.00
2018-08-30T19:32:41.167Z,0.00
2018-08-30T19:33:41.832Z,0.00
2018-08-30T19:34:41.082Z,0.00
2018-08-30T19:35:41.076Z,0.00
2018-08-30T19:36:41.062Z,0.00
2018-08-30T19:37:41.116Z,0.00
2018-08-30T19:38:41.043Z,0.00
2018-08-30T19:39:41.033Z,0.00
2018-08-30T19:40:41.037Z,0.00
2018-08-30T19:41:41.006Z,0.00
2018-08-30T19:42:41.106Z,0.00
2018-08-30T19:43:40.985Z,0.00
2018-08-30T19:44:40.974Z,0.00
2018-08-30T19:45:40.962Z,0.00
2018-08-30T19:46:40.952Z,0.00
2018-08-30T19:47:41.005Z,0.00
2018-08-30T19:48:40.935Z,0.00
2018-08-30T19:49:40.928Z,0.00
2018-08-30T19:50:40.928Z,0.00
2018-08-30T19:51:40.902Z,0.00
2018-08-30T19:52:40.951Z,0.00
2018-08-30T19:53:40.878Z,0.00
2018-08-30T19:54:41.901Z,0.00
2018-08-30T19:55:40.860Z,0.00
2018-08-30T19:56:40.848Z,0.00
2018-08-30T19:57:40.905Z,0.00
2018-08-30T19:58:40.827Z,0.00
2018-08-30T19:59:40.816Z,0.00
2018-08-30T20:00:40.810Z,0.00
2018-08-30T20:01:40.799Z,0.00
2018-08-30T20:02:40.852Z,0.00
2018-08-30T20:03:40.818Z,0.00
2018-08-30T20:04:40.764Z,0.00
2018-08-30T20:05:40.819Z,0.00
2018-08-30T20:06:40.741Z,0.00
2018-08-30T20:07:40.753Z,0.00
2018-08-30T20:08:40.783Z,0.00
2018-08-30T20:09:40.711Z,0.00
2018-08-30T20:10:40.700Z,0.00
2018-08-30T20:11:40.688Z,0.00
2018-08-30T20:12:40.678Z,0.00
2018-08-30T20:13:40.730Z,0.00
2018-08-30T20:14:40.658Z,0.00
2018-08-30T20:15:41.364Z,0.00
2018-08-30T20:16:40.634Z,0.00
2018-08-30T20:17:40.623Z,0.00
2018-08-30T20:18:40.675Z,0.00
2018-08-30T20:19:40.603Z,0.00
2018-08-30T20:20:40.595Z,0.00
2018-08-30T20:21:40.585Z,0.00
2018-08-30T20:22:40.579Z,0.00
2018-08-30T20:23:40.633Z,0.00
2018-08-30T20:24:40.548Z,0.00
2018-08-30T20:25:40.536Z,0.00
2018-08-30T20:26:40.528Z,0.00
2018-08-30T20:27:40.526Z,0.00
2018-08-30T20:28:40.570Z,0.00
2018-08-30T20:29:40.495Z,0.00
2018-08-30T20:30:40.483Z,0.00
2018-08-30T20:31:40.475Z,0.00
2018-08-30T20:32:40.469Z,0.00
2018-08-30T20:33:40.522Z,0.00
2018-08-30T20:34:40.442Z,0.00
2018-08-30T20:35:40.439Z,0.00
2018-08-30T20:36:41.364Z,0.00
2018-08-30T20:37:40.411Z,0.00
2018-08-30T20:38:40.467Z,0.00
2018-08-30T20:39:40.393Z,0.00
2018-08-30T20:40:40.378Z,0.00
2018-08-30T20:41:40.391Z,0.00
2018-08-30T20:42:40.357Z,0.00
2018-08-30T20:43:40.414Z,0.00
2018-08-30T20:44:40.337Z,0.00
2018-08-30T20:45:40.328Z,0.00
2018-08-30T20:46:40.358Z,0.00
2018-08-30T20:47:40.303Z,0.00
2018-08-30T20:48:40.359Z,0.00
2018-08-30T20:49:40.281Z,0.00
2018-08-30T20:50:40.276Z,0.00
2018-08-30T20:51:40.274Z,0.00
2018-08-30T20:52:40.254Z,0.00
2018-08-30T20:53:40.346Z,0.00
2018-08-30T20:54:40.235Z,0.00
2018-08-30T20:55:40.221Z,0.00
2018-08-30T20:56:40.209Z,0.00
2018-08-30T20:57:40.824Z,0.00
2018-08-30T20:58:40.251Z,0.00
2018-08-30T20:59:40.176Z,0.00
2018-08-30T21:00:40.168Z,0.00
2018-08-30T21:01:40.157Z,0.00
2018-08-30T21:02:40.144Z,0.00
2018-08-30T21:03:40.197Z,0.00
2018-08-30T21:04:40.129Z,0.00
2018-08-30T21:05:40.112Z,0.00
2018-08-30T21:06:40.105Z,0.00
2018-08-30T21:07:40.093Z,0.00
2018-08-30T21:08:40.141Z,0.00
2018-08-30T21:09:40.080Z,0.00
2018-08-30T21:10:40.060Z,0.00
2018-08-30T21:11:40.053Z,0.00
2018-08-30T21:12:40.036Z,0.00
2018-08-30T21:13:40.094Z,0.00
2018-08-30T21:14:47.582Z,0.00
2018-08-30T21:15:48.101Z,0.00
2018-08-30T21:16:48.109Z,0.00
2018-08-30T21:17:39.986Z,0.00
2018-08-30T21:18:40.036Z,0.00
2018-08-30T21:19:39.963Z,0.00
2018-08-30T21:20:39.953Z,0.00
2018-08-30T21:21:39.942Z,0.00
2018-08-30T21:22:39.931Z,0.00
2018-08-30T21:23:39.982Z,0.00
2018-08-30T21:24:39.909Z,0.00
2018-08-30T21:25:39.898Z,0.00
2018-08-30T21:26:39.895Z,0.00
2018-08-30T21:27:39.918Z,0.00
2018-08-30T21:28:39.933Z,0.00
2018-08-30T21:29:39.858Z,0.00
2018-08-30T21:30:39.853Z,0.00
2018-08-30T21:31:40.446Z,0.00
2018-08-30T21:32:39.831Z,0.00
2018-08-30T21:33:39.879Z,0.00
2018-08-30T21:34:39.804Z,0.00
2018-08-30T21:35:39.793Z,0.00
2018-08-30T21:36:39.784Z,0.00
2018-08-30T21:37:40.470Z,0.00
2018-08-30T21:38:39.823Z,0.00
2018-08-30T21:39:39.752Z,0.00
2018-08-30T21:40:39.737Z,0.00
2018-08-30T21:41:39.729Z,0.00
2018-08-30T21:42:39.719Z,0.00
2018-08-30T21:43:39.709Z,0.00
2018-08-30T21:44:39.765Z,0.00
2018-08-30T21:45:39.685Z,0.00
2018-08-30T21:46:39.677Z,0.00
2018-08-30T21:47:39.663Z,0.00
2018-08-30T21:48:39.654Z,0.00
2018-08-30T21:49:39.707Z,0.00
2018-08-30T21:50:39.635Z,0.00
2018-08-30T21:51:39.634Z,0.00
2018-08-30T21:52:39.613Z,0.00
2018-08-30T21:53:39.603Z,0.00
2018-08-30T21:54:39.655Z,0.00
2018-08-30T21:55:39.582Z,0.00
2018-08-30T21:56:39.574Z,0.00
2018-08-30T21:57:39.560Z,0.00
2018-08-30T21:58:40.442Z,0.00
2018-08-30T21:59:40.448Z,0.00
2018-08-30T22:00:39.530Z,0.00
2018-08-30T22:01:39.522Z,0.00
2018-08-30T22:02:39.559Z,0.00
2018-08-30T22:03:39.499Z,0.00
2018-08-30T22:04:39.555Z,0.00
2018-08-30T22:05:39.476Z,0.00
2018-08-30T22:06:39.463Z,0.00
2018-08-30T22:07:39.455Z,0.00
2018-08-30T22:08:39.446Z,0.00
2018-08-30T22:09:39.496Z,0.00
2018-08-30T22:10:39.420Z,0.00
2018-08-30T22:11:39.411Z,0.00
2018-08-30T22:12:39.403Z,0.00
2018-08-30T22:13:39.389Z,0.00
2018-08-30T22:14:39.444Z,0.00
2018-08-30T22:15:39.373Z,0.00
2018-08-30T22:16:39.364Z,0.00
2018-08-30T22:17:39.347Z,0.00
2018-08-30T22:18:39.339Z,0.00
2018-08-30T22:19:47.457Z,0.00
2018-08-30T22:20:48.518Z,0.00
2018-08-30T22:21:46.837Z,0.00
2018-08-30T22:22:46.823Z,0.00
2018-08-30T22:23:47.414Z,0.00
2018-08-30T22:24:39.336Z,0.00
2018-08-30T22:25:39.264Z,0.00
2018-08-30T22:26:39.250Z,0.00
2018-08-30T22:27:39.240Z,0.00
2018-08-30T22:28:39.228Z,0.00
2018-08-30T22:29:39.283Z,0.00
2018-08-30T22:30:39.209Z,0.00
2018-08-30T22:31:39.197Z,0.00
2018-08-30T22:32:39.190Z,0.00
2018-08-30T22:33:39.178Z,0.00
2018-08-30T22:34:39.233Z,0.00
2018-08-30T22:35:39.158Z,0.00
2018-08-30T22:36:39.143Z,0.00
2018-08-30T22:37:39.132Z,0.00
2018-08-30T22:38:39.121Z,0.00
2018-08-30T22:39:39.178Z,0.00
2018-08-30T22:40:39.658Z,0.00
2018-08-30T22:41:39.092Z,0.00
2018-08-30T22:42:39.083Z,0.00
2018-08-30T22:43:39.073Z,0.00
2018-08-30T22:44:39.127Z,0.00
2018-08-30T22:45:39.051Z,0.00
2018-08-30T22:46:39.046Z,0.00
2018-08-30T22:47:39.031Z,0.00
2018-08-30T22:48:39.020Z,0.00
2018-08-30T22:49:39.073Z,0.00
2018-08-30T22:50:38.996Z,0.00
2018-08-30T22:51:38.984Z,0.00
2018-08-30T22:52:38.973Z,0.00
2018-08-30T22:53:38.968Z,0.00
2018-08-30T22:54:39.018Z,0.00
2018-08-30T22:55:38.946Z,0.00
2018-08-30T22:56:38.932Z,0.00
2018-08-30T22:57:38.927Z,0.00
2018-08-30T22:58:38.916Z,0.00
2018-08-30T22:59:38.965Z,0.00
2018-08-30T23:00:38.891Z,0.00
2018-08-30T23:01:39.625Z,0.00
2018-08-30T23:02:38.868Z,0.00
2018-08-30T23:03:38.862Z,0.00
2018-08-30T23:04:38.910Z,0.00
2018-08-30T23:05:38.845Z,0.00
2018-08-30T23:06:38.901Z,0.00
2018-08-30T23:07:38.816Z,0.00
2018-08-30T23:08:38.810Z,0.00
2018-08-30T23:09:38.857Z,0.00
2018-08-30T23:10:38.782Z,0.00
2018-08-30T23:11:38.773Z,0.00
2018-08-30T23:12:38.766Z,0.00
2018-08-30T23:13:38.753Z,0.00
2018-08-30T23:14:38.809Z,0.00
2018-08-30T23:15:38.735Z,0.00
2018-08-30T23:16:38.719Z,0.00
2018-08-30T23:17:38.710Z,0.00
2018-08-30T23:18:38.702Z,0.00
2018-08-30T23:19:38.755Z,0.00
2018-08-30T23:20:38.678Z,0.00
2018-08-30T23:21:38.666Z,0.00